sensor_id;sensor_type;location;lat;lon;timestamp;P1;durP1;ratioP1;P2;durP2;ratioP2
20857;SDS011;10589;53.636;10.012;2023-03-01T04:46:35;13.63;;;8.23;;
20857;SDS011;10589;53.636;10.012;2023-03-01T04:49:02;13.67;;;8.47;;
20857;SDS011;10589;53.636;10.012;2023-03-01T04:51:28;13.57;;;8.80;;
20857;SDS011;10589;53.636;10.012;2023-03-01T04:53:54;13.60;;;8.37;;
20857;SDS011;10589;53.636;10.012;2023-03-01T04:56:19;14.27;;;8.13;;
20857;SDS011;10589;53.636;10.012;2023-03-01T04:58:47;16.73;;;8.70;;
20857;SDS011;10589;53.636;10.012;2023-03-01T05:01:17;13.73;;;8.50;;
20857;SDS011;10589;53.636;10.012;2023-03-01T05:03:45;18.40;;;9.33;;
20857;SDS011;10589;53.636;10.012;2023-03-01T05:06:15;13.57;;;8.40;;
20857;SDS011;10589;53.636;10.012;2023-03-01T05:08:42;14.57;;;8.37;;
20857;SDS011;10589;53.636;10.012;2023-03-01T05:11:08;13.87;;;8.07;;
20857;SDS011;10589;53.636;10.012;2023-03-01T05:13:34;11.93;;;7.67;;
20857;SDS011;10589;53.636;10.012;2023-03-01T05:16:01;11.27;;;8.10;;
20857;SDS011;10589;53.636;10.012;2023-03-01T05:18:28;12.40;;;8.50;;
20857;SDS011;10589;53.636;10.012;2023-03-01T05:20:56;12.40;;;8.27;;
20857;SDS011;10589;53.636;10.012;2023-03-01T05:23:29;12.80;;;7.90;;
20857;SDS011;10589;53.636;10.012;2023-03-01T05:25:57;10.00;;;6.87;;
20857;SDS011;10589;53.636;10.012;2023-03-01T05:28:24;12.17;;;7.30;;
20857;SDS011;10589;53.636;10.012;2023-03-01T05:30:50;14.50;;;8.40;;
20857;SDS011;10589;53.636;10.012;2023-03-01T05:33:17;12.63;;;7.50;;
20857;SDS011;10589;53.636;10.012;2023-03-01T05:35:43;8.30;;;5.97;;
20857;SDS011;10589;53.636;10.012;2023-03-01T05:38:10;9.57;;;7.03;;
20857;SDS011;10589;53.636;10.012;2023-03-01T05:40:44;14.40;;;7.30;;
20857;SDS011;10589;53.636;10.012;2023-03-01T05:43:11;12.83;;;7.40;;
20857;SDS011;10589;53.636;10.012;2023-03-01T05:45:39;12.83;;;8.17;;
20857;SDS011;10589;53.636;10.012;2023-03-01T05:48:05;14.30;;;7.00;;
20857;SDS011;10589;53.636;10.012;2023-03-01T05:50:33;14.13;;;7.50;;
20857;SDS011;10589;53.636;10.012;2023-03-01T05:53:02;12.17;;;6.97;;
20857;SDS011;10589;53.636;10.012;2023-03-01T05:55:33;10.50;;;6.50;;
20857;SDS011;10589;53.636;10.012;2023-03-01T05:57:59;14.47;;;7.20;;
20857;SDS011;10589;53.636;10.012;2023-03-01T06:00:27;16.23;;;7.20;;
20857;SDS011;10589;53.636;10.012;2023-03-01T06:02:54;14.40;;;7.07;;
20857;SDS011;10589;53.636;10.012;2023-03-01T06:05:20;13.10;;;6.90;;
20857;SDS011;10589;53.636;10.012;2023-03-01T06:07:47;9.33;;;6.67;;
20857;SDS011;10589;53.636;10.012;2023-03-01T06:10:13;12.37;;;6.93;;
20857;SDS011;10589;53.636;10.012;2023-03-01T06:12:40;13.53;;;7.37;;
20857;SDS011;10589;53.636;10.012;2023-03-01T06:15:07;9.50;;;6.33;;
20857;SDS011;10589;53.636;10.012;2023-03-01T06:17:35;12.13;;;6.40;;
20857;SDS011;10589;53.636;10.012;2023-03-01T06:20:03;12.00;;;7.20;;
20857;SDS011;10589;53.636;10.012;2023-03-01T06:22:34;10.13;;;6.40;;
20857;SDS011;10589;53.636;10.012;2023-03-01T06:24:59;10.53;;;6.87;;
20857;SDS011;10589;53.636;10.012;2023-03-01T06:27:25;11.33;;;7.13;;
20857;SDS011;10589;53.636;10.012;2023-03-01T06:29:50;14.00;;;7.27;;
20857;SDS011;10589;53.636;10.012;2023-03-01T06:32:16;10.60;;;6.47;;
20857;SDS011;10589;53.636;10.012;2023-03-01T06:34:41;13.37;;;7.50;;
20857;SDS011;10589;53.636;10.012;2023-03-01T06:37:07;11.07;;;6.97;;
20857;SDS011;10589;53.636;10.012;2023-03-01T06:39:33;12.50;;;6.63;;
20857;SDS011;10589;53.636;10.012;2023-03-01T06:41:59;15.30;;;8.33;;
20857;SDS011;10589;53.636;10.012;2023-03-01T06:44:24;10.07;;;6.60;;
20857;SDS011;10589;53.636;10.012;2023-03-01T06:46:50;10.63;;;7.07;;
20857;SDS011;10589;53.636;10.012;2023-03-01T06:49:16;9.47;;;6.73;;
20857;SDS011;10589;53.636;10.012;2023-03-01T06:51:42;11.43;;;7.63;;
20857;SDS011;10589;53.636;10.012;2023-03-01T06:54:09;12.57;;;7.53;;
20857;SDS011;10589;53.636;10.012;2023-03-01T06:56:35;15.07;;;7.73;;
20857;SDS011;10589;53.636;10.012;2023-03-01T06:59:01;12.57;;;7.67;;
20857;SDS011;10589;53.636;10.012;2023-03-01T07:01:27;13.43;;;7.10;;
20857;SDS011;10589;53.636;10.012;2023-03-01T07:03:53;12.23;;;7.10;;
20857;SDS011;10589;53.636;10.012;2023-03-01T07:06:19;14.33;;;7.53;;
20857;SDS011;10589;53.636;10.012;2023-03-01T07:08:45;16.53;;;8.23;;
20857;SDS011;10589;53.636;10.012;2023-03-01T07:11:10;15.67;;;7.83;;
20857;SDS011;10589;53.636;10.012;2023-03-01T07:13:36;16.40;;;8.47;;
20857;SDS011;10589;53.636;10.012;2023-03-01T07:16:02;12.77;;;7.87;;
20857;SDS011;10589;53.636;10.012;2023-03-01T07:18:27;11.77;;;7.63;;
20857;SDS011;10589;53.636;10.012;2023-03-01T07:20:53;15.57;;;7.73;;
20857;SDS011;10589;53.636;10.012;2023-03-01T07:23:19;14.57;;;7.93;;
20857;SDS011;10589;53.636;10.012;2023-03-01T07:25:48;10.43;;;7.23;;
20857;SDS011;10589;53.636;10.012;2023-03-01T07:28:16;11.70;;;7.50;;
20857;SDS011;10589;53.636;10.012;2023-03-01T07:30:42;13.80;;;8.63;;
20857;SDS011;10589;53.636;10.012;2023-03-01T07:33:08;10.20;;;7.30;;
20857;SDS011;10589;53.636;10.012;2023-03-01T07:35:33;11.33;;;8.23;;
20857;SDS011;10589;53.636;10.012;2023-03-01T07:37:59;10.50;;;6.97;;
20857;SDS011;10589;53.636;10.012;2023-03-01T07:40:24;13.90;;;7.13;;
20857;SDS011;10589;53.636;10.012;2023-03-01T07:42:54;13.20;;;7.10;;
20857;SDS011;10589;53.636;10.012;2023-03-01T07:45:21;11.17;;;7.10;;
20857;SDS011;10589;53.636;10.012;2023-03-01T07:47:46;16.17;;;8.20;;
20857;SDS011;10589;53.636;10.012;2023-03-01T07:50:12;16.70;;;7.83;;
20857;SDS011;10589;53.636;10.012;2023-03-01T07:52:38;12.17;;;7.87;;
20857;SDS011;10589;53.636;10.012;2023-03-01T07:55:04;12.53;;;9.30;;
20857;SDS011;10589;53.636;10.012;2023-03-01T07:57:30;12.13;;;8.53;;
20857;SDS011;10589;53.636;10.012;2023-03-01T07:59:56;13.87;;;8.60;;
20857;SDS011;10589;53.636;10.012;2023-03-01T08:02:22;14.33;;;9.60;;
20857;SDS011;10589;53.636;10.012;2023-03-01T08:04:47;14.00;;;9.43;;
20857;SDS011;10589;53.636;10.012;2023-03-01T08:07:13;13.90;;;10.10;;
20857;SDS011;10589;53.636;10.012;2023-03-01T08:09:39;19.23;;;10.43;;
20857;SDS011;10589;53.636;10.012;2023-03-01T08:12:04;17.97;;;10.30;;
20857;SDS011;10589;53.636;10.012;2023-03-01T08:14:31;13.50;;;9.57;;
20857;SDS011;10589;53.636;10.012;2023-03-01T08:16:57;13.73;;;9.70;;
20857;SDS011;10589;53.636;10.012;2023-03-01T08:19:23;18.10;;;11.50;;
20857;SDS011;10589;53.636;10.012;2023-03-01T08:21:49;16.13;;;11.23;;
20857;SDS011;10589;53.636;10.012;2023-03-01T08:24:15;15.07;;;11.10;;
20857;SDS011;10589;53.636;10.012;2023-03-01T08:26:40;14.90;;;10.70;;
20857;SDS011;10589;53.636;10.012;2023-03-01T08:29:06;16.37;;;10.33;;
20857;SDS011;10589;53.636;10.012;2023-03-01T08:31:36;13.80;;;10.27;;
20857;SDS011;10589;53.636;10.012;2023-03-01T08:34:05;18.37;;;10.87;;
20857;SDS011;10589;53.636;10.012;2023-03-01T08:36:35;13.47;;;9.93;;
20857;SDS011;10589;53.636;10.012;2023-03-01T08:39:02;15.67;;;11.33;;
20857;SDS011;10589;53.636;10.012;2023-03-01T08:41:28;16.97;;;11.97;;
20857;SDS011;10589;53.636;10.012;2023-03-01T08:43:54;18.17;;;11.33;;
20857;SDS011;10589;53.636;10.012;2023-03-01T08:46:24;16.67;;;11.47;;
20857;SDS011;10589;53.636;10.012;2023-03-01T08:48:51;18.67;;;11.57;;
20857;SDS011;10589;53.636;10.012;2023-03-01T08:51:17;16.00;;;11.83;;
20857;SDS011;10589;53.636;10.012;2023-03-01T08:53:44;16.53;;;11.13;;
20857;SDS011;10589;53.636;10.012;2023-03-01T08:56:10;17.30;;;11.50;;
20857;SDS011;10589;53.636;10.012;2023-03-01T08:58:37;19.30;;;12.30;;
20857;SDS011;10589;53.636;10.012;2023-03-01T09:01:13;14.43;;;11.00;;
20857;SDS011;10589;53.636;10.012;2023-03-01T09:03:43;16.77;;;11.97;;
20857;SDS011;10589;53.636;10.012;2023-03-01T09:06:09;15.77;;;10.80;;
20857;SDS011;10589;53.636;10.012;2023-03-01T09:08:36;15.30;;;10.10;;
20857;SDS011;10589;53.636;10.012;2023-03-01T09:11:04;13.87;;;9.97;;
20857;SDS011;10589;53.636;10.012;2023-03-01T09:13:31;16.97;;;11.07;;
20857;SDS011;10589;53.636;10.012;2023-03-01T09:15:57;14.77;;;11.50;;
20857;SDS011;10589;53.636;10.012;2023-03-01T09:18:23;16.43;;;12.17;;
20857;SDS011;10589;53.636;10.012;2023-03-01T09:20:49;14.90;;;10.83;;
20857;SDS011;10589;53.636;10.012;2023-03-01T09:23:15;15.10;;;11.30;;
20857;SDS011;10589;53.636;10.012;2023-03-01T09:25:40;16.83;;;11.67;;
20857;SDS011;10589;53.636;10.012;2023-03-01T09:28:06;18.80;;;11.40;;
20857;SDS011;10589;53.636;10.012;2023-03-01T09:30:32;19.50;;;12.27;;
20857;SDS011;10589;53.636;10.012;2023-03-01T09:32:58;16.07;;;11.17;;
20857;SDS011;10589;53.636;10.012;2023-03-01T09:35:23;19.03;;;12.10;;
20857;SDS011;10589;53.636;10.012;2023-03-01T09:37:49;24.80;;;12.37;;
20857;SDS011;10589;53.636;10.012;2023-03-01T09:40:21;20.63;;;12.30;;
20857;SDS011;10589;53.636;10.012;2023-03-01T09:42:53;17.07;;;11.40;;
20857;SDS011;10589;53.636;10.012;2023-03-01T09:45:28;19.50;;;12.27;;
20857;SDS011;10589;53.636;10.012;2023-03-01T09:47:59;16.93;;;11.33;;
20857;SDS011;10589;53.636;10.012;2023-03-01T09:50:28;17.20;;;11.23;;
20857;SDS011;10589;53.636;10.012;2023-03-01T09:53:04;17.07;;;11.57;;
20857;SDS011;10589;53.636;10.012;2023-03-01T10:00:50;15.80;;;10.93;;
20857;SDS011;10589;53.636;10.012;2023-03-01T10:03:16;15.20;;;10.73;;
20857;SDS011;10589;53.636;10.012;2023-03-01T10:05:52;18.60;;;11.67;;
20857;SDS011;10589;53.636;10.012;2023-03-01T10:08:34;15.70;;;10.43;;
20857;SDS011;10589;53.636;10.012;2023-03-01T10:11:17;15.93;;;10.67;;
20857;SDS011;10589;53.636;10.012;2023-03-01T10:16:28;21.63;;;12.10;;
20857;SDS011;10589;53.636;10.012;2023-03-01T10:19:28;16.60;;;10.90;;
20857;SDS011;10589;53.636;10.012;2023-03-01T10:21:57;13.97;;;9.70;;
20857;SDS011;10589;53.636;10.012;2023-03-01T10:24:28;15.80;;;10.10;;
20857;SDS011;10589;53.636;10.012;2023-03-01T10:27:07;15.10;;;9.77;;
20857;SDS011;10589;53.636;10.012;2023-03-01T10:30:01;16.33;;;9.20;;
20857;SDS011;10589;53.636;10.012;2023-03-01T10:32:38;14.37;;;9.47;;
20857;SDS011;10589;53.636;10.012;2023-03-01T10:37:57;13.40;;;8.67;;
20857;SDS011;10589;53.636;10.012;2023-03-01T10:40:23;13.70;;;9.20;;
20857;SDS011;10589;53.636;10.012;2023-03-01T10:42:48;17.40;;;9.70;;
20857;SDS011;10589;53.636;10.012;2023-03-01T10:45:16;16.23;;;9.17;;
20857;SDS011;10589;53.636;10.012;2023-03-01T10:50:47;13.33;;;9.17;;
20857;SDS011;10589;53.636;10.012;2023-03-01T10:53:25;14.40;;;9.57;;
20857;SDS011;10589;53.636;10.012;2023-03-01T10:58:39;15.37;;;9.30;;
20857;SDS011;10589;53.636;10.012;2023-03-01T11:01:32;14.30;;;9.63;;
20857;SDS011;10589;53.636;10.012;2023-03-01T11:06:32;15.43;;;8.63;;
20857;SDS011;10589;53.636;10.012;2023-03-01T11:09:15;11.13;;;8.30;;
20857;SDS011;10589;53.636;10.012;2023-03-01T11:11:45;12.90;;;8.90;;
20857;SDS011;10589;53.636;10.012;2023-03-01T11:14:18;13.10;;;8.73;;
20857;SDS011;10589;53.636;10.012;2023-03-01T11:16:47;13.47;;;8.53;;
20857;SDS011;10589;53.636;10.012;2023-03-01T11:19:23;13.53;;;8.63;;
20857;SDS011;10589;53.636;10.012;2023-03-01T11:22:01;17.50;;;8.87;;
20857;SDS011;10589;53.636;10.012;2023-03-01T11:24:40;10.43;;;7.53;;
20857;SDS011;10589;53.636;10.012;2023-03-01T11:27:34;9.47;;;7.20;;
20857;SDS011;10589;53.636;10.012;2023-03-01T11:30:07;8.27;;;6.37;;
20857;SDS011;10589;53.636;10.012;2023-03-01T11:35:42;8.80;;;6.70;;
20857;SDS011;10589;53.636;10.012;2023-03-01T11:38:21;10.77;;;7.00;;
20857;SDS011;10589;53.636;10.012;2023-03-01T12:08:24;8.50;;;6.20;;
20857;SDS011;10589;53.636;10.012;2023-03-01T12:13:53;7.57;;;5.90;;
20857;SDS011;10589;53.636;10.012;2023-03-01T12:19:26;9.47;;;6.37;;
20857;SDS011;10589;53.636;10.012;2023-03-01T12:30:40;7.70;;;6.53;;
20857;SDS011;10589;53.636;10.012;2023-03-01T12:47:02;9.07;;;6.60;;
20857;SDS011;10589;53.636;10.012;2023-03-01T12:49:41;9.63;;;6.57;;
20857;SDS011;10589;53.636;10.012;2023-03-01T12:52:55;9.80;;;6.80;;
20857;SDS011;10589;53.636;10.012;2023-03-01T12:55:21;9.87;;;6.97;;
20857;SDS011;10589;53.636;10.012;2023-03-01T12:58:17;11.43;;;7.13;;
20857;SDS011;10589;53.636;10.012;2023-03-01T13:06:29;9.73;;;5.50;;
20857;SDS011;10589;53.636;10.012;2023-03-01T13:09:18;7.90;;;5.30;;
20857;SDS011;10589;53.636;10.012;2023-03-01T13:11:48;7.97;;;5.90;;
20857;SDS011;10589;53.636;10.012;2023-03-01T13:16:46;7.47;;;5.20;;
20857;SDS011;10589;53.636;10.012;2023-03-01T13:19:18;7.70;;;4.90;;
20857;SDS011;10589;53.636;10.012;2023-03-01T13:21:48;7.43;;;5.23;;
20857;SDS011;10589;53.636;10.012;2023-03-01T13:29:44;8.73;;;4.70;;
20857;SDS011;10589;53.636;10.012;2023-03-01T13:35:40;5.78;;;4.05;;
20857;SDS011;10589;53.636;10.012;2023-03-01T13:41:11;4.15;;;3.55;;
20857;SDS011;10589;53.636;10.012;2023-03-01T13:43:39;4.95;;;3.88;;
20857;SDS011;10589;53.636;10.012;2023-03-01T13:46:11;3.97;;;3.45;;
20857;SDS011;10589;53.636;10.012;2023-03-01T13:48:42;4.13;;;3.15;;
20857;SDS011;10589;53.636;10.012;2023-03-01T13:51:10;3.90;;;3.17;;
20857;SDS011;10589;53.636;10.012;2023-03-01T13:53:39;5.85;;;3.63;;
20857;SDS011;10589;53.636;10.012;2023-03-01T13:58:53;4.05;;;3.47;;
20857;SDS011;10589;53.636;10.012;2023-03-01T14:01:24;5.22;;;3.63;;
20857;SDS011;10589;53.636;10.012;2023-03-01T14:03:54;4.10;;;3.30;;
20857;SDS011;10589;53.636;10.012;2023-03-01T14:06:30;3.97;;;3.25;;
20857;SDS011;10589;53.636;10.012;2023-03-01T14:12:04;4.53;;;3.05;;
20857;SDS011;10589;53.636;10.012;2023-03-01T14:18:14;4.25;;;3.25;;
20857;SDS011;10589;53.636;10.012;2023-03-01T14:20:48;4.25;;;3.08;;
20857;SDS011;10589;53.636;10.012;2023-03-01T14:23:20;4.05;;;3.38;;
20857;SDS011;10589;53.636;10.012;2023-03-01T14:25:48;3.88;;;3.28;;
20857;SDS011;10589;53.636;10.012;2023-03-01T14:30:52;5.53;;;4.10;;
20857;SDS011;10589;53.636;10.012;2023-03-01T14:36:03;4.97;;;3.50;;
20857;SDS011;10589;53.636;10.012;2023-03-01T14:38:37;4.07;;;3.38;;
20857;SDS011;10589;53.636;10.012;2023-03-01T14:41:04;5.05;;;3.80;;
20857;SDS011;10589;53.636;10.012;2023-03-01T14:43:34;5.68;;;4.32;;
20857;SDS011;10589;53.636;10.012;2023-03-01T14:46:00;5.05;;;4.13;;
20857;SDS011;10589;53.636;10.012;2023-03-01T14:48:27;4.35;;;3.42;;
20857;SDS011;10589;53.636;10.012;2023-03-01T14:50:54;5.45;;;4.57;;
20857;SDS011;10589;53.636;10.012;2023-03-01T14:53:26;4.63;;;3.85;;
20857;SDS011;10589;53.636;10.012;2023-03-01T14:55:55;7.07;;;4.18;;
20857;SDS011;10589;53.636;10.012;2023-03-01T14:58:24;6.55;;;4.43;;
20857;SDS011;10589;53.636;10.012;2023-03-01T15:00:52;8.32;;;4.45;;
20857;SDS011;10589;53.636;10.012;2023-03-01T15:03:24;4.35;;;3.90;;
20857;SDS011;10589;53.636;10.012;2023-03-01T15:05:55;4.45;;;3.83;;
20857;SDS011;10589;53.636;10.012;2023-03-01T15:08:23;4.75;;;3.85;;
20857;SDS011;10589;53.636;10.012;2023-03-01T15:11:00;4.70;;;3.90;;
20857;SDS011;10589;53.636;10.012;2023-03-01T15:13:41;4.05;;;3.65;;
20857;SDS011;10589;53.636;10.012;2023-03-01T15:18:33;4.65;;;3.50;;
20857;SDS011;10589;53.636;10.012;2023-03-01T15:21:10;4.50;;;3.72;;
20857;SDS011;10589;53.636;10.012;2023-03-01T15:26:31;3.95;;;3.50;;
20857;SDS011;10589;53.636;10.012;2023-03-01T15:29:02;4.93;;;3.70;;
20857;SDS011;10589;53.636;10.012;2023-03-01T15:31:32;4.83;;;4.00;;
20857;SDS011;10589;53.636;10.012;2023-03-01T15:36:47;5.80;;;4.33;;
20857;SDS011;10589;53.636;10.012;2023-03-01T15:42:23;6.53;;;4.47;;
20857;SDS011;10589;53.636;10.012;2023-03-01T15:47:48;6.47;;;4.10;;
20857;SDS011;10589;53.636;10.012;2023-03-01T15:50:21;7.57;;;4.60;;
20857;SDS011;10589;53.636;10.012;2023-03-01T15:52:48;7.97;;;5.73;;
20857;SDS011;10589;53.636;10.012;2023-03-01T15:55:23;10.87;;;6.57;;
20857;SDS011;10589;53.636;10.012;2023-03-01T15:58:03;9.30;;;6.63;;
20857;SDS011;10589;53.636;10.012;2023-03-01T16:00:31;10.00;;;6.40;;
20857;SDS011;10589;53.636;10.012;2023-03-01T16:02:58;7.93;;;6.23;;
20857;SDS011;10589;53.636;10.012;2023-03-01T16:05:30;8.10;;;6.47;;
20857;SDS011;10589;53.636;10.012;2023-03-01T16:07:59;8.57;;;6.07;;
20857;SDS011;10589;53.636;10.012;2023-03-01T16:10:25;10.40;;;6.30;;
20857;SDS011;10589;53.636;10.012;2023-03-01T16:12:51;11.57;;;7.20;;
20857;SDS011;10589;53.636;10.012;2023-03-01T16:15:18;10.57;;;7.03;;
20857;SDS011;10589;53.636;10.012;2023-03-01T16:17:49;11.00;;;7.17;;
20857;SDS011;10589;53.636;10.012;2023-03-01T16:20:15;11.50;;;7.33;;
20857;SDS011;10589;53.636;10.012;2023-03-01T16:22:42;10.60;;;7.43;;
20857;SDS011;10589;53.636;10.012;2023-03-01T16:25:12;10.33;;;7.47;;
20857;SDS011;10589;53.636;10.012;2023-03-01T16:27:41;14.37;;;9.03;;
20857;SDS011;10589;53.636;10.012;2023-03-01T16:30:08;14.37;;;9.50;;
20857;SDS011;10589;53.636;10.012;2023-03-01T16:32:37;16.63;;;10.67;;
20857;SDS011;10589;53.636;10.012;2023-03-01T16:35:04;15.17;;;10.43;;
20857;SDS011;10589;53.636;10.012;2023-03-01T16:37:31;14.80;;;10.63;;
20857;SDS011;10589;53.636;10.012;2023-03-01T16:39:57;17.23;;;10.40;;
20857;SDS011;10589;53.636;10.012;2023-03-01T16:42:23;13.87;;;9.57;;
20857;SDS011;10589;53.636;10.012;2023-03-01T16:44:53;14.73;;;9.90;;
20857;SDS011;10589;53.636;10.012;2023-03-01T16:47:22;12.57;;;8.70;;
20857;SDS011;10589;53.636;10.012;2023-03-01T16:49:51;13.67;;;9.43;;
20857;SDS011;10589;53.636;10.012;2023-03-01T16:52:18;12.50;;;9.10;;
20857;SDS011;10589;53.636;10.012;2023-03-01T16:54:44;14.73;;;9.07;;
20857;SDS011;10589;53.636;10.012;2023-03-01T16:57:09;14.77;;;9.67;;
20857;SDS011;10589;53.636;10.012;2023-03-01T16:59:35;12.53;;;9.03;;
20857;SDS011;10589;53.636;10.012;2023-03-01T17:02:02;12.47;;;8.47;;
20857;SDS011;10589;53.636;10.012;2023-03-01T17:04:35;12.20;;;8.80;;
20857;SDS011;10589;53.636;10.012;2023-03-01T17:07:01;13.23;;;8.20;;
20857;SDS011;10589;53.636;10.012;2023-03-01T17:09:26;12.00;;;8.10;;
20857;SDS011;10589;53.636;10.012;2023-03-01T17:11:52;11.77;;;9.03;;
20857;SDS011;10589;53.636;10.012;2023-03-01T17:14:19;13.17;;;9.00;;
20857;SDS011;10589;53.636;10.012;2023-03-01T17:16:45;10.67;;;8.60;;
20857;SDS011;10589;53.636;10.012;2023-03-01T17:19:11;12.83;;;9.50;;
20857;SDS011;10589;53.636;10.012;2023-03-01T17:21:37;14.10;;;9.93;;
20857;SDS011;10589;53.636;10.012;2023-03-01T17:24:03;13.80;;;9.33;;
20857;SDS011;10589;53.636;10.012;2023-03-01T17:26:29;12.43;;;8.83;;
20857;SDS011;10589;53.636;10.012;2023-03-01T17:28:55;10.73;;;8.53;;
20857;SDS011;10589;53.636;10.012;2023-03-01T17:31:21;11.77;;;8.77;;
20857;SDS011;10589;53.636;10.012;2023-03-01T17:33:47;11.27;;;9.07;;
20857;SDS011;10589;53.636;10.012;2023-03-01T17:36:14;11.23;;;8.50;;
20857;SDS011;10589;53.636;10.012;2023-03-01T17:38:40;13.03;;;9.60;;
20857;SDS011;10589;53.636;10.012;2023-03-01T17:41:06;13.20;;;9.70;;
20857;SDS011;10589;53.636;10.012;2023-03-01T17:43:31;14.47;;;9.97;;
20857;SDS011;10589;53.636;10.012;2023-03-01T17:45:59;13.00;;;9.77;;
20857;SDS011;10589;53.636;10.012;2023-03-01T17:48:24;16.80;;;12.13;;
20857;SDS011;10589;53.636;10.012;2023-03-01T17:50:50;18.37;;;12.80;;
20857;SDS011;10589;53.636;10.012;2023-03-01T17:53:16;16.67;;;12.40;;
20857;SDS011;10589;53.636;10.012;2023-03-01T17:55:42;18.87;;;12.23;;
20857;SDS011;10589;53.636;10.012;2023-03-01T17:58:09;19.47;;;12.80;;
20857;SDS011;10589;53.636;10.012;2023-03-01T18:00:37;19.53;;;13.40;;
20857;SDS011;10589;53.636;10.012;2023-03-01T18:03:03;23.20;;;15.30;;
20857;SDS011;10589;53.636;10.012;2023-03-01T18:05:36;35.53;;;21.77;;
20857;SDS011;10589;53.636;10.012;2023-03-01T18:08:02;18.17;;;13.00;;
20857;SDS011;10589;53.636;10.012;2023-03-01T18:10:28;20.20;;;14.03;;
20857;SDS011;10589;53.636;10.012;2023-03-01T18:12:56;21.47;;;15.53;;
20857;SDS011;10589;53.636;10.012;2023-03-01T18:15:21;22.60;;;15.10;;
20857;SDS011;10589;53.636;10.012;2023-03-01T18:17:47;20.43;;;13.53;;
20857;SDS011;10589;53.636;10.012;2023-03-01T18:20:13;30.37;;;22.07;;
20857;SDS011;10589;53.636;10.012;2023-03-01T18:22:40;22.83;;;16.67;;
20857;SDS011;10589;53.636;10.012;2023-03-01T18:25:05;22.33;;;16.23;;
20857;SDS011;10589;53.636;10.012;2023-03-01T18:27:32;25.77;;;17.87;;
20857;SDS011;10589;53.636;10.012;2023-03-01T18:29:57;29.33;;;20.03;;
20857;SDS011;10589;53.636;10.012;2023-03-01T18:32:23;28.77;;;19.63;;
20857;SDS011;10589;53.636;10.012;2023-03-01T18:34:50;30.53;;;19.40;;
20857;SDS011;10589;53.636;10.012;2023-03-01T18:37:16;29.67;;;19.43;;
20857;SDS011;10589;53.636;10.012;2023-03-01T18:39:42;28.73;;;18.40;;
20857;SDS011;10589;53.636;10.012;2023-03-01T18:42:07;28.60;;;19.37;;
20857;SDS011;10589;53.636;10.012;2023-03-01T18:44:33;32.10;;;18.63;;
20857;SDS011;10589;53.636;10.012;2023-03-01T18:46:59;39.33;;;20.37;;
20857;SDS011;10589;53.636;10.012;2023-03-01T18:49:25;31.63;;;20.03;;
20857;SDS011;10589;53.636;10.012;2023-03-01T18:51:50;52.93;;;21.13;;
20857;SDS011;10589;53.636;10.012;2023-03-01T18:54:16;38.30;;;22.47;;
20857;SDS011;10589;53.636;10.012;2023-03-01T18:56:43;33.27;;;20.37;;
20857;SDS011;10589;53.636;10.012;2023-03-01T18:59:09;34.97;;;20.87;;
20857;SDS011;10589;53.636;10.012;2023-03-01T19:01:34;40.87;;;21.77;;
20857;SDS011;10589;53.636;10.012;2023-03-01T19:04:00;36.50;;;21.47;;
20857;SDS011;10589;53.636;10.012;2023-03-01T19:06:29;40.97;;;22.87;;
20857;SDS011;10589;53.636;10.012;2023-03-01T19:08:57;36.77;;;22.63;;
20857;SDS011;10589;53.636;10.012;2023-03-01T19:11:23;43.50;;;25.93;;
20857;SDS011;10589;53.636;10.012;2023-03-01T19:13:51;41.23;;;24.13;;
20857;SDS011;10589;53.636;10.012;2023-03-01T19:16:22;47.83;;;25.93;;
20857;SDS011;10589;53.636;10.012;2023-03-01T19:18:53;49.50;;;25.50;;
20857;SDS011;10589;53.636;10.012;2023-03-01T19:21:29;44.27;;;27.43;;
20857;SDS011;10589;53.636;10.012;2023-03-01T19:23:56;45.87;;;25.33;;
20857;SDS011;10589;53.636;10.012;2023-03-01T19:26:24;45.47;;;25.03;;
20857;SDS011;10589;53.636;10.012;2023-03-01T19:28:54;47.07;;;25.47;;
20857;SDS011;10589;53.636;10.012;2023-03-01T19:31:31;42.27;;;23.83;;
20857;SDS011;10589;53.636;10.012;2023-03-01T19:33:58;52.97;;;24.13;;
20857;SDS011;10589;53.636;10.012;2023-03-01T19:36:27;45.30;;;25.20;;
20857;SDS011;10589;53.636;10.012;2023-03-01T19:39:03;41.73;;;24.57;;
20857;SDS011;10589;53.636;10.012;2023-03-01T19:41:31;45.47;;;25.07;;
20857;SDS011;10589;53.636;10.012;2023-03-01T19:44:00;44.33;;;25.03;;
20857;SDS011;10589;53.636;10.012;2023-03-01T19:46:36;42.83;;;25.17;;
20857;SDS011;10589;53.636;10.012;2023-03-01T19:49:12;39.77;;;24.30;;
20857;SDS011;10589;53.636;10.012;2023-03-01T19:51:39;44.50;;;24.03;;
20857;SDS011;10589;53.636;10.012;2023-03-01T19:54:09;44.13;;;23.00;;
20857;SDS011;10589;53.636;10.012;2023-03-01T19:56:37;44.50;;;25.37;;
20857;SDS011;10589;53.636;10.012;2023-03-01T19:59:07;43.10;;;24.53;;
20857;SDS011;10589;53.636;10.012;2023-03-01T20:01:37;42.07;;;25.63;;
20857;SDS011;10589;53.636;10.012;2023-03-01T20:04:06;46.13;;;24.23;;
20857;SDS011;10589;53.636;10.012;2023-03-01T20:06:36;41.90;;;23.80;;
20857;SDS011;10589;53.636;10.012;2023-03-01T20:09:05;48.23;;;23.93;;
20857;SDS011;10589;53.636;10.012;2023-03-01T20:11:32;43.53;;;24.73;;
20857;SDS011;10589;53.636;10.012;2023-03-01T20:13:59;44.57;;;25.23;;
20857;SDS011;10589;53.636;10.012;2023-03-01T20:16:25;44.73;;;25.90;;
20857;SDS011;10589;53.636;10.012;2023-03-01T20:18:53;49.53;;;26.70;;
20857;SDS011;10589;53.636;10.012;2023-03-01T20:21:27;58.83;;;25.43;;
20857;SDS011;10589;53.636;10.012;2023-03-01T20:23:53;55.90;;;25.10;;
20857;SDS011;10589;53.636;10.012;2023-03-01T20:26:28;48.07;;;24.53;;
20857;SDS011;10589;53.636;10.012;2023-03-01T20:28:57;45.87;;;23.90;;
20857;SDS011;10589;53.636;10.012;2023-03-01T20:31:26;51.63;;;24.97;;
20857;SDS011;10589;53.636;10.012;2023-03-01T20:33:56;59.20;;;25.60;;
20857;SDS011;10589;53.636;10.012;2023-03-01T20:36:37;44.03;;;22.80;;
20857;SDS011;10589;53.636;10.012;2023-03-01T20:39:07;46.83;;;22.93;;
20857;SDS011;10589;53.636;10.012;2023-03-01T20:41:38;47.03;;;22.13;;
20857;SDS011;10589;53.636;10.012;2023-03-01T20:44:08;46.97;;;23.17;;
20857;SDS011;10589;53.636;10.012;2023-03-01T20:46:34;45.97;;;23.00;;
20857;SDS011;10589;53.636;10.012;2023-03-01T20:49:01;66.03;;;23.97;;
20857;SDS011;10589;53.636;10.012;2023-03-01T20:51:35;55.87;;;23.37;;
20857;SDS011;10589;53.636;10.012;2023-03-01T20:54:07;50.63;;;22.83;;
20857;SDS011;10589;53.636;10.012;2023-03-01T20:56:34;46.20;;;23.13;;
20857;SDS011;10589;53.636;10.012;2023-03-01T20:59:02;52.03;;;24.00;;
20857;SDS011;10589;53.636;10.012;2023-03-01T21:01:29;45.27;;;24.37;;
20857;SDS011;10589;53.636;10.012;2023-03-01T21:03:58;57.23;;;24.27;;
20857;SDS011;10589;53.636;10.012;2023-03-01T21:06:24;64.20;;;23.67;;
20857;SDS011;10589;53.636;10.012;2023-03-01T21:08:50;46.83;;;22.23;;
20857;SDS011;10589;53.636;10.012;2023-03-01T21:11:16;54.90;;;22.83;;
20857;SDS011;10589;53.636;10.012;2023-03-01T21:13:46;69.70;;;24.00;;
20857;SDS011;10589;53.636;10.012;2023-03-01T21:16:16;56.83;;;23.23;;
20857;SDS011;10589;53.636;10.012;2023-03-01T21:18:43;68.60;;;23.53;;
20857;SDS011;10589;53.636;10.012;2023-03-01T21:21:13;74.20;;;24.57;;